Accueil
METAR-TAF:

METAR-TAF

Aéroports :

Gloucester, Angleterre

Aéroport du Gloucestershire

latitude: 51-54N, longitude: 002-10W, altitude: 29 m

Observation

Le bulletin a été fait il y a 5 heures et 49 minutes, à 18:50 UTC
Vent calme
Température 6°C
Humidité 81%
Pression 1026 hPa
Visibilité 10 km ou plus
Nuages épars à une hauteur de 3600 ft

METAR: EGBJ 211850Z 00000KT 9999 SCT036 06/03 Q1026

Heure: 00:39 (00:39 UTC)

Prévision

Le bulletin a été fait il y a 7 heures et 36 minutes, à 17:03 UTC
Prévision valable du 21 à 18 UTC au 21 à 20 UTC
Vent 5 kt de est/nord-est
Visibilité 10 km ou plus
Nuages épars à une hauteur de 2500 ft
Probabilité 30% :
Temporairement
du 21 à 18 UTC au 21 à 20 UTC
Visibilité: 7000 m
faibles averses de pluie

TAF: EGBJ 211703Z 2118/2120 06005KT 9999 SCT025 PROB30 TEMPO 2118/2120 7000 -SHRA

Observations et prévisions météorologiques de plus de 4000 aéroports (messages METAR et TAF).

Les stations disponibles sont représentées par des disques jaunes et rouges sur la carte.

Passer la souris dessus pour voir le nom de la station.

Cliquer dessus pour voir les observations et prévisions météorologiques.

Pour changer de carte: cliquez sur les boutons verts avec une croix noire pour zoomer, sur le bouton vert avec un tiret pour effectuer un zoom arrière, ou sur les flèches vertes pour les cartes adjacentes.


METAR-TAF: